createdAt,value
2019-05-05T00:01:16.207Z,13.46
2019-05-05T00:03:51.187Z,13.35
2019-05-05T00:06:21.667Z,13.26
2019-05-05T00:08:52.094Z,13.22
2019-05-05T00:11:31.183Z,13.15
2019-05-05T00:14:06.121Z,13.15
2019-05-05T00:16:38.186Z,13.16
2019-05-05T00:19:08.603Z,13.14
2019-05-05T00:21:39.091Z,13.10
2019-05-05T00:24:09.528Z,13.05
2019-05-05T00:26:40.012Z,13.06
2019-05-05T00:29:10.427Z,13.01
2019-05-05T00:31:40.900Z,12.92
2019-05-05T00:34:11.339Z,12.93
2019-05-05T00:36:41.846Z,12.91
2019-05-05T00:39:12.289Z,12.91
2019-05-05T00:41:44.825Z,12.85
2019-05-05T00:44:15.476Z,12.81
2019-05-05T00:46:56.497Z,12.83
2019-05-05T00:49:28.462Z,12.76
2019-05-05T00:51:59.544Z,12.79
2019-05-05T00:54:30.116Z,12.75
2019-05-05T00:57:00.685Z,12.69
2019-05-05T00:59:31.402Z,12.71
2019-05-05T01:02:04.611Z,12.72
2019-05-05T01:04:55.162Z,12.60
2019-05-05T01:07:25.613Z,12.68
2019-05-05T01:09:56.040Z,12.68
2019-05-05T01:12:28.053Z,12.64
2019-05-05T01:14:58.469Z,12.64
2019-05-05T01:17:28.952Z,12.69
2019-05-05T01:20:04.077Z,12.68
2019-05-05T01:22:31.552Z,12.60
2019-05-05T01:25:01.922Z,12.59
2019-05-05T01:27:34.612Z,12.67
2019-05-05T01:30:07.674Z,12.77
2019-05-05T01:32:44.502Z,12.67
2019-05-05T01:35:14.690Z,12.66
2019-05-05T01:37:49.518Z,12.58
2019-05-05T01:40:24.805Z,12.48
2019-05-05T01:42:55.371Z,12.48
2019-05-05T01:45:25.829Z,12.39
2019-05-05T01:47:56.321Z,12.36
2019-05-05T01:50:26.791Z,12.38
2019-05-05T01:52:57.311Z,12.35
2019-05-05T01:55:27.908Z,12.31
2019-05-05T01:57:58.584Z,12.25
2019-05-05T02:00:29.031Z,12.19
2019-05-05T02:02:59.770Z,12.37
2019-05-05T02:05:30.253Z,12.24
2019-05-05T02:08:00.746Z,12.18
2019-05-05T02:10:31.222Z,12.01
2019-05-05T02:13:04.626Z,12.14
2019-05-05T02:15:34.861Z,12.00
2019-05-05T02:18:05.540Z,12.02
2019-05-05T02:21:05.664Z,12.03
2019-05-05T02:23:37.933Z,11.94
2019-05-05T02:26:09.390Z,11.93
2019-05-05T02:28:41.561Z,11.96
2019-05-05T02:31:16.860Z,11.91
2019-05-05T02:33:47.499Z,11.99
2019-05-05T02:36:17.949Z,11.94
2019-05-05T02:38:48.468Z,11.89
2019-05-05T02:41:20.141Z,11.93
2019-05-05T02:43:51.252Z,11.90
2019-05-05T02:46:25.394Z,11.86
2019-05-05T02:48:58.131Z,11.91
2019-05-05T02:51:29.746Z,11.90
2019-05-05T02:54:04.401Z,11.88
2019-05-05T02:56:39.203Z,11.88
2019-05-05T02:59:11.783Z,11.88
2019-05-05T03:01:46.488Z,12.06
2019-05-05T03:04:17.271Z,11.96
2019-05-05T03:06:50.641Z,12.06
2019-05-05T03:09:24.340Z,12.16
2019-05-05T03:11:57.209Z,12.20
2019-05-05T03:14:30.221Z,12.21
2019-05-05T03:17:04.329Z,12.18
2019-05-05T03:19:34.860Z,12.31
2019-05-05T03:22:05.529Z,12.34
2019-05-05T03:24:36.005Z,12.46
2019-05-05T03:27:06.416Z,12.39
2019-05-05T03:29:36.916Z,12.49
2019-05-05T03:32:11.519Z,12.49
2019-05-05T03:34:40.172Z,12.53
2019-05-05T03:37:10.758Z,12.53
2019-05-05T03:39:44.479Z,12.67
2019-05-05T03:42:16.661Z,12.66
2019-05-05T03:44:54.409Z,12.72
2019-05-05T03:47:24.879Z,12.64
2019-05-05T03:49:56.154Z,12.79
2019-05-05T03:52:26.776Z,12.90
2019-05-05T03:54:57.177Z,13.07
2019-05-05T03:57:27.610Z,13.10
2019-05-05T03:59:58.438Z,13.15
2019-05-05T04:02:30.444Z,13.25
2019-05-05T04:05:05.218Z,13.37
2019-05-05T04:07:35.741Z,13.38
2019-05-05T04:10:07.285Z,13.55
2019-05-05T04:12:38.124Z,13.58
2019-05-05T04:15:09.516Z,13.80
2019-05-05T04:17:41.517Z,13.89
2019-05-05T04:20:19.727Z,13.88
2019-05-05T04:22:50.174Z,13.92
2019-05-05T04:25:20.699Z,14.04
2019-05-05T04:27:51.177Z,13.86
2019-05-05T04:30:23.699Z,14.02
2019-05-05T04:32:54.698Z,14.18
2019-05-05T04:35:25.269Z,14.35
2019-05-05T04:37:55.708Z,14.54
2019-05-05T04:40:26.194Z,14.67
2019-05-05T04:42:56.635Z,14.74
2019-05-05T04:45:27.102Z,14.80
2019-05-05T04:47:59.125Z,14.83
2019-05-05T04:50:34.521Z,14.95
2019-05-05T04:53:25.764Z,15.04
2019-05-05T04:55:56.253Z,14.98
2019-05-05T04:58:26.667Z,15.17
2019-05-05T05:00:57.167Z,15.32
2019-05-05T05:03:38.248Z,15.46
2019-05-05T05:06:10.303Z,15.49
2019-05-05T05:08:40.712Z,15.52
2019-05-05T05:11:11.185Z,15.65
2019-05-05T05:13:41.588Z,15.54
2019-05-05T05:16:13.868Z,15.56
2019-05-05T05:18:44.722Z,15.58
2019-05-05T05:21:15.238Z,15.92
2019-05-05T05:23:45.653Z,15.71
2019-05-05T05:26:16.146Z,15.78
2019-05-05T05:28:46.570Z,15.83
2019-05-05T05:31:17.040Z,15.88
2019-05-05T05:33:47.386Z,15.89
2019-05-05T05:36:17.862Z,15.95
2019-05-05T05:38:49.838Z,15.94
2019-05-05T05:41:38.057Z,16.31
2019-05-05T05:44:22.042Z,16.39
2019-05-05T05:46:56.775Z,16.55
2019-05-05T05:49:34.743Z,16.72
2019-05-05T05:52:13.372Z,16.78
2019-05-05T05:54:37.233Z,16.94
2019-05-05T05:57:07.681Z,17.09
2019-05-05T05:59:38.106Z,17.13
2019-05-05T06:02:12.423Z,17.52
2019-05-05T06:04:40.690Z,17.34
2019-05-05T06:07:11.171Z,17.31
2019-05-05T06:09:43.587Z,17.45
2019-05-05T06:12:14.226Z,17.62
2019-05-05T06:14:44.867Z,17.81
2019-05-05T06:17:15.478Z,17.94
2019-05-05T06:19:45.908Z,18.17
2019-05-05T06:22:28.205Z,18.05
2019-05-05T06:24:48.499Z,17.83
2019-05-05T06:27:18.981Z,18.08
2019-05-05T06:29:49.405Z,18.41
2019-05-05T06:32:19.904Z,18.87
2019-05-05T06:34:50.318Z,19.01
2019-05-05T06:37:20.789Z,19.10
2019-05-05T06:39:54.435Z,18.83
2019-05-05T06:42:38.614Z,18.44
2019-05-05T06:45:10.720Z,18.64
2019-05-05T06:47:42.099Z,19.06
2019-05-05T06:50:13.965Z,19.22
2019-05-05T06:52:47.123Z,19.34
2019-05-05T06:55:16.663Z,19.33
2019-05-05T06:57:47.120Z,19.57
2019-05-05T07:00:17.659Z,19.81
2019-05-05T07:02:48.152Z,19.26
2019-05-05T07:05:18.583Z,19.64
2019-05-05T07:07:49.044Z,19.77
2019-05-05T07:10:19.435Z,20.12
2019-05-05T07:12:49.909Z,19.92
2019-05-05T07:15:20.341Z,19.82
2019-05-05T07:17:50.971Z,20.13
2019-05-05T07:20:21.376Z,20.47
2019-05-05T07:23:01.549Z,20.37
2019-05-05T07:25:24.326Z,20.25
2019-05-05T07:27:54.825Z,20.19
2019-05-05T07:30:25.191Z,20.51
2019-05-05T07:32:55.664Z,20.47
2019-05-05T07:35:55.351Z,20.65
2019-05-05T07:38:15.752Z,20.60
2019-05-05T07:40:46.174Z,20.45
2019-05-05T07:43:16.607Z,20.69
2019-05-05T07:45:47.055Z,20.31
2019-05-05T07:48:17.607Z,20.55
2019-05-05T07:51:01.227Z,21.11
2019-05-05T07:53:20.129Z,21.19
2019-05-05T07:55:50.572Z,21.26
2019-05-05T07:58:21.057Z,21.68
2019-05-05T08:00:51.483Z,21.97
2019-05-05T08:03:23.643Z,21.73
2019-05-05T08:05:54.565Z,21.63
2019-05-05T08:08:24.994Z,21.77
2019-05-05T08:10:55.408Z,21.87
2019-05-05T08:13:25.885Z,22.25
2019-05-05T08:16:00.115Z,22.54
2019-05-05T08:18:35.218Z,22.36
2019-05-05T08:21:07.216Z,22.08
2019-05-05T08:23:44.554Z,22.15
2019-05-05T08:26:18.671Z,21.41
2019-05-05T08:28:59.856Z,21.22
2019-05-05T08:31:46.936Z,20.93
2019-05-05T08:34:17.316Z,20.75
2019-05-05T08:36:47.766Z,21.46
2019-05-05T08:39:21.357Z,21.99
2019-05-05T08:41:50.370Z,21.35
2019-05-05T08:44:20.854Z,21.37
2019-05-05T08:46:51.275Z,22.05
2019-05-05T08:49:21.753Z,22.05
2019-05-05T08:51:52.219Z,22.13
2019-05-05T08:54:23.580Z,22.03
2019-05-05T08:56:54.929Z,22.33
2019-05-05T08:59:25.522Z,21.79
2019-05-05T09:01:55.955Z,22.36
2019-05-05T09:04:26.424Z,22.30
2019-05-05T09:06:56.858Z,22.51
2019-05-05T09:09:27.370Z,23.55
2019-05-05T09:11:57.814Z,23.59
2019-05-05T09:14:28.281Z,23.62
2019-05-05T09:16:58.730Z,23.53
2019-05-05T09:19:30.156Z,23.42
2019-05-05T09:22:00.579Z,23.15
2019-05-05T09:24:35.292Z,23.63
2019-05-05T09:27:07.462Z,23.61
2019-05-05T09:29:45.228Z,23.70
2019-05-05T09:32:15.655Z,23.56
2019-05-05T09:34:46.118Z,24.52
2019-05-05T09:37:16.564Z,24.59
2019-05-05T09:39:47.040Z,24.59
2019-05-05T09:42:17.549Z,25.26
2019-05-05T09:44:48.041Z,25.00
2019-05-05T09:47:18.466Z,24.14
2019-05-05T09:49:48.831Z,24.08
2019-05-05T09:52:19.259Z,24.02
2019-05-05T09:54:49.754Z,23.09
2019-05-05T09:57:20.156Z,23.92
2019-05-05T09:59:50.627Z,24.28
2019-05-05T10:02:21.038Z,24.13
2019-05-05T10:04:51.519Z,24.37
2019-05-05T10:07:24.075Z,25.11
2019-05-05T10:09:54.362Z,24.73
2019-05-05T10:12:24.787Z,24.53
2019-05-05T10:14:55.192Z,24.95
2019-05-05T10:17:25.655Z,24.17
2019-05-05T10:19:57.198Z,24.14
2019-05-05T10:22:27.635Z,24.02
2019-05-05T10:25:15.607Z,24.15
2019-05-05T10:27:47.829Z,24.45
2019-05-05T10:30:18.522Z,25.32
2019-05-05T10:32:48.927Z,25.12
2019-05-05T10:35:19.374Z,24.17
2019-05-05T10:37:49.833Z,23.79
2019-05-05T10:40:21.865Z,23.80
2019-05-05T10:42:53.891Z,24.77
2019-05-05T10:45:24.765Z,25.60
2019-05-05T10:47:55.527Z,25.18
2019-05-05T10:50:26.092Z,24.93
2019-05-05T10:52:56.494Z,24.58
2019-05-05T10:55:26.941Z,24.64
2019-05-05T10:57:57.434Z,25.03
2019-05-05T11:00:48.010Z,25.71
2019-05-05T11:03:18.458Z,25.75
2019-05-05T11:05:50.331Z,26.24
2019-05-05T11:08:21.215Z,26.63
2019-05-05T11:10:51.991Z,27.52
2019-05-05T11:13:23.980Z,26.90
2019-05-05T11:15:54.810Z,25.87
2019-05-05T11:18:25.355Z,25.68
2019-05-05T11:20:56.796Z,25.54
2019-05-05T11:23:27.345Z,24.57
2019-05-05T11:25:57.924Z,25.31
2019-05-05T11:28:28.424Z,25.88
2019-05-05T11:30:58.885Z,24.92
2019-05-05T11:33:34.439Z,24.49
2019-05-05T11:36:07.023Z,24.61
2019-05-05T11:38:37.466Z,25.47
2019-05-05T11:41:07.955Z,24.50
2019-05-05T11:43:38.397Z,24.02
2019-05-05T11:46:10.423Z,23.69
2019-05-05T11:48:43.836Z,23.66
2019-05-05T11:51:15.093Z,23.63
2019-05-05T11:53:45.592Z,24.12
2019-05-05T11:56:16.020Z,24.58
2019-05-05T11:58:46.430Z,25.42
2019-05-05T12:01:17.297Z,24.62
2019-05-05T12:03:47.803Z,24.44
2019-05-05T12:06:18.242Z,24.72
2019-05-05T12:08:48.645Z,26.06
2019-05-05T12:11:19.097Z,25.24
2019-05-05T12:13:49.471Z,24.47
2019-05-05T12:16:34.519Z,24.08
2019-05-05T12:19:06.246Z,24.06
2019-05-05T12:21:37.651Z,24.92
2019-05-05T12:24:09.630Z,25.43
2019-05-05T12:26:54.267Z,24.39
2019-05-05T12:29:24.959Z,23.81
2019-05-05T12:31:55.456Z,23.38
2019-05-05T12:34:25.926Z,23.15
2019-05-05T12:36:56.319Z,23.00
2019-05-05T12:39:26.744Z,22.97
2019-05-05T12:41:57.253Z,23.10
2019-05-05T12:44:29.262Z,23.27
2019-05-05T12:47:17.300Z,23.56
2019-05-05T12:49:47.795Z,24.05
2019-05-05T12:52:18.307Z,23.69
2019-05-05T12:54:48.732Z,23.76
2019-05-05T12:57:19.200Z,24.49
2019-05-05T12:59:49.634Z,25.64
2019-05-05T13:02:20.132Z,26.47
2019-05-05T13:04:50.635Z,25.91
2019-05-05T13:07:21.108Z,26.07
2019-05-05T13:09:51.550Z,25.10
2019-05-05T13:12:23.864Z,23.84
2019-05-05T13:14:54.524Z,23.53
2019-05-05T13:17:25.068Z,24.02
2019-05-05T13:19:59.590Z,24.61
2019-05-05T13:22:44.741Z,24.41
2019-05-05T13:25:16.806Z,24.17
2019-05-05T13:27:47.306Z,25.08
2019-05-05T13:30:17.813Z,25.89
2019-05-05T13:32:48.313Z,25.88
2019-05-05T13:35:18.781Z,26.02
2019-05-05T13:37:49.309Z,25.29
2019-05-05T13:40:19.901Z,25.29
2019-05-05T13:42:50.536Z,25.66
2019-05-05T13:45:25.366Z,25.28
2019-05-05T13:47:55.957Z,24.86
2019-05-05T13:50:34.206Z,24.07
2019-05-05T13:53:04.739Z,23.67
2019-05-05T13:55:35.308Z,23.28
2019-05-05T13:58:08.575Z,23.23
2019-05-05T14:00:38.048Z,23.27
2019-05-05T14:03:08.582Z,23.25
2019-05-05T14:05:39.041Z,23.37
2019-05-05T14:08:09.540Z,23.25
2019-05-05T14:10:40.121Z,23.44
2019-05-05T14:13:10.699Z,23.47
2019-05-05T14:15:41.173Z,23.36
2019-05-05T14:18:11.685Z,23.29
2019-05-05T14:20:43.579Z,23.32
2019-05-05T14:23:14.875Z,23.31
2019-05-05T14:25:45.464Z,23.24
2019-05-05T14:28:18.216Z,23.24
2019-05-05T14:30:54.137Z,23.11
2019-05-05T14:33:29.062Z,23.04
2019-05-05T14:36:01.108Z,22.82
2019-05-05T14:38:45.241Z,22.83
2019-05-05T14:41:15.830Z,22.80
2019-05-05T14:43:46.372Z,22.84
2019-05-05T14:46:16.806Z,22.84
2019-05-05T14:48:47.310Z,22.87
2019-05-05T14:51:17.792Z,22.75
2019-05-05T14:53:48.324Z,22.69
2019-05-05T14:56:18.738Z,22.67
2019-05-05T14:58:49.254Z,22.53
2019-05-05T15:01:19.757Z,22.50
2019-05-05T15:03:50.353Z,22.39
2019-05-05T15:06:25.014Z,22.35
2019-05-05T15:08:59.834Z,22.31
2019-05-05T15:11:33.798Z,22.30
2019-05-05T15:14:06.863Z,22.25
2019-05-05T15:16:36.716Z,22.19
2019-05-05T15:19:07.268Z,22.10
2019-05-05T15:21:37.813Z,22.07
2019-05-05T15:24:09.432Z,22.05
2019-05-05T15:26:51.232Z,22.00
2019-05-05T15:29:12.107Z,21.93
2019-05-05T15:31:43.535Z,21.95
2019-05-05T15:34:14.076Z,21.88
2019-05-05T15:36:44.528Z,21.90
2019-05-05T15:39:15.089Z,21.81
2019-05-05T15:41:45.524Z,21.78
2019-05-05T15:44:16.134Z,21.64
2019-05-05T15:46:48.607Z,21.54
2019-05-05T15:49:19.013Z,21.52
2019-05-05T15:51:49.595Z,21.51
2019-05-05T15:54:20.162Z,21.44
2019-05-05T15:57:03.004Z,21.45
2019-05-05T15:59:23.915Z,21.40
2019-05-05T16:01:54.992Z,21.34
2019-05-05T16:04:25.747Z,21.30
2019-05-05T16:06:56.182Z,21.25
2019-05-05T16:09:26.624Z,21.17
2019-05-05T16:11:57.044Z,21.12
2019-05-05T16:14:27.473Z,21.07
2019-05-05T16:16:59.466Z,21.04
2019-05-05T16:19:31.496Z,21.02
2019-05-05T16:22:06.337Z,21.02
2019-05-05T16:24:39.328Z,20.92
2019-05-05T16:27:21.122Z,20.78
2019-05-05T16:29:44.655Z,20.78
2019-05-05T16:32:21.706Z,20.72
2019-05-05T16:34:49.628Z,20.66
2019-05-05T16:37:20.047Z,20.60
2019-05-05T16:39:50.454Z,20.61
2019-05-05T16:42:20.870Z,20.46
2019-05-05T16:44:51.351Z,20.42
2019-05-05T16:47:21.768Z,20.38
2019-05-05T16:49:53.810Z,20.37
2019-05-05T16:52:26.840Z,20.30
2019-05-05T16:55:07.871Z,20.15
2019-05-05T16:57:39.966Z,20.07
2019-05-05T17:00:10.463Z,20.03
2019-05-05T17:02:40.939Z,19.93
2019-05-05T17:05:13.636Z,19.89
2019-05-05T17:07:43.672Z,19.88
2019-05-05T17:10:14.372Z,19.77
2019-05-05T17:12:46.834Z,19.73
2019-05-05T17:15:35.419Z,19.67
2019-05-05T17:18:32.809Z,19.62
2019-05-05T17:21:00.868Z,19.50
2019-05-05T17:23:31.413Z,19.48
2019-05-05T17:26:10.450Z,19.39
2019-05-05T17:28:40.967Z,19.34
2019-05-05T17:31:11.484Z,19.33
2019-05-05T17:33:44.060Z,19.27
2019-05-05T17:36:14.100Z,19.22
2019-05-05T17:38:44.538Z,19.17
2019-05-05T17:41:19.363Z,19.24
2019-05-05T17:43:51.393Z,19.09
2019-05-05T17:46:38.272Z,19.15
2019-05-05T17:49:14.142Z,19.03
2019-05-05T17:51:46.277Z,18.96
2019-05-05T17:54:18.359Z,19.02
2019-05-05T17:56:48.857Z,18.97
2019-05-05T17:59:19.269Z,18.90
2019-05-05T18:01:49.767Z,18.89
2019-05-05T18:04:20.216Z,18.80
2019-05-05T18:06:54.964Z,18.78
2019-05-05T18:09:43.842Z,18.68
2019-05-05T18:12:15.990Z,18.56
2019-05-05T18:14:47.999Z,18.70
2019-05-05T18:17:18.493Z,18.73
2019-05-05T18:19:48.918Z,18.57
2019-05-05T18:22:19.377Z,18.53
2019-05-05T18:24:49.821Z,18.55
2019-05-05T18:27:21.261Z,18.52
2019-05-05T18:29:51.840Z,18.46
2019-05-05T18:32:23.557Z,18.51
2019-05-05T18:34:54.640Z,18.39
2019-05-05T18:37:25.115Z,18.39
2019-05-05T18:39:55.612Z,18.36
2019-05-05T18:42:25.931Z,18.29
2019-05-05T18:44:58.024Z,18.31
2019-05-05T18:47:28.478Z,18.34
2019-05-05T18:49:58.945Z,18.29
2019-05-05T18:52:29.385Z,18.34
2019-05-05T18:54:59.885Z,18.32
2019-05-05T18:57:30.343Z,18.26
2019-05-05T19:00:00.854Z,18.18
2019-05-05T19:02:37.064Z,18.09
2019-05-05T19:05:25.773Z,18.12
2019-05-05T19:08:06.718Z,18.04
2019-05-05T19:10:37.183Z,18.03
2019-05-05T19:13:07.677Z,17.97
2019-05-05T19:15:38.165Z,17.94
2019-05-05T19:18:08.587Z,17.94
2019-05-05T19:20:44.479Z,17.89
2019-05-05T19:23:16.553Z,17.83
2019-05-05T19:25:47.114Z,17.78
2019-05-05T19:28:18.585Z,17.75
2019-05-05T19:30:49.185Z,17.73
2019-05-05T19:33:19.665Z,17.74
2019-05-05T19:35:50.151Z,17.71
2019-05-05T19:38:20.572Z,17.66
2019-05-05T19:40:55.884Z,17.67
2019-05-05T19:43:24.746Z,17.42
2019-05-05T19:45:58.092Z,17.50
2019-05-05T19:48:28.723Z,17.49
2019-05-05T19:51:00.768Z,17.38
2019-05-05T19:53:31.223Z,17.09
2019-05-05T19:56:03.931Z,17.09
2019-05-05T19:58:34.129Z,17.17
2019-05-05T20:01:06.161Z,17.06
2019-05-05T20:03:36.845Z,17.01
2019-05-05T20:06:07.492Z,17.15
2019-05-05T20:08:41.380Z,17.07
2019-05-05T20:11:10.250Z,16.98
2019-05-05T20:13:40.713Z,16.96
2019-05-05T20:16:15.785Z,16.89
2019-05-05T20:18:46.246Z,16.84
2019-05-05T20:21:16.711Z,16.88
2019-05-05T20:23:47.154Z,16.78
2019-05-05T20:26:17.554Z,16.79
2019-05-05T20:28:48.834Z,16.75
2019-05-05T20:31:19.404Z,16.72
2019-05-05T20:33:57.235Z,16.79
2019-05-05T20:36:32.031Z,16.77
2019-05-05T20:39:04.315Z,16.80
2019-05-05T20:41:34.861Z,16.80
2019-05-05T20:44:05.916Z,16.76
2019-05-05T20:46:36.526Z,16.78
2019-05-05T20:49:07.000Z,16.86
2019-05-05T20:51:37.457Z,16.81
2019-05-05T20:54:07.885Z,16.73
2019-05-05T20:56:38.503Z,16.54
2019-05-05T20:59:08.957Z,16.51
2019-05-05T21:01:43.903Z,16.47
2019-05-05T21:04:16.217Z,16.49
2019-05-05T21:06:46.706Z,16.43
2019-05-05T21:09:17.134Z,16.42
2019-05-05T21:11:47.539Z,16.46
2019-05-05T21:14:31.142Z,16.39
2019-05-05T21:16:50.503Z,16.40
2019-05-05T21:19:20.915Z,16.35
2019-05-05T21:21:54.431Z,16.21
2019-05-05T21:24:25.063Z,16.19
2019-05-05T21:26:57.156Z,16.14
2019-05-05T21:29:39.639Z,15.93
2019-05-05T21:32:00.675Z,15.80
2019-05-05T21:34:31.135Z,15.81
2019-05-05T21:37:01.651Z,15.80
2019-05-05T21:39:32.049Z,15.81
2019-05-05T21:42:04.678Z,15.82
2019-05-05T21:44:34.750Z,15.86
2019-05-05T21:47:05.264Z,15.86
2019-05-05T21:49:35.617Z,15.87
2019-05-05T21:52:24.032Z,15.84
2019-05-05T21:54:56.147Z,15.79
2019-05-05T21:57:36.994Z,15.81
2019-05-05T22:00:09.922Z,15.83
2019-05-05T22:02:40.397Z,15.76
2019-05-05T22:05:10.830Z,15.81
2019-05-05T22:07:41.410Z,15.80
2019-05-05T22:10:13.571Z,15.80
2019-05-05T22:12:44.753Z,15.84
2019-05-05T22:15:15.238Z,15.83
2019-05-05T22:17:45.747Z,15.80
2019-05-05T22:20:17.745Z,15.77
2019-05-05T22:22:48.598Z,15.61
2019-05-05T22:25:19.065Z,15.66
2019-05-05T22:27:49.501Z,15.49
2019-05-05T22:30:20.771Z,15.53
2019-05-05T22:32:51.359Z,15.47
2019-05-05T22:35:23.847Z,15.39
2019-05-05T22:37:54.065Z,15.16
2019-05-05T22:40:25.879Z,15.23
2019-05-05T22:42:56.304Z,15.15
2019-05-05T22:45:26.851Z,15.22
2019-05-05T22:47:57.379Z,15.24
2019-05-05T22:50:27.817Z,15.18
2019-05-05T22:52:58.261Z,15.16
2019-05-05T22:55:28.592Z,15.18
2019-05-05T22:57:59.061Z,15.18
2019-05-05T23:00:29.949Z,15.08
2019-05-05T23:03:04.321Z,15.10
2019-05-05T23:05:44.458Z,15.11
2019-05-05T23:08:18.227Z,15.04
2019-05-05T23:10:47.058Z,14.97
2019-05-05T23:13:17.554Z,14.99
2019-05-05T23:15:55.422Z,14.93
2019-05-05T23:18:27.539Z,14.95
2019-05-05T23:21:02.513Z,14.91
2019-05-05T23:23:34.531Z,15.04
2019-05-05T23:26:06.634Z,15.11
2019-05-05T23:28:37.070Z,15.07
2019-05-05T23:31:08.460Z,15.08
2019-05-05T23:33:39.006Z,15.09
2019-05-05T23:36:09.414Z,15.20
2019-05-05T23:38:39.967Z,15.30
2019-05-05T23:41:10.401Z,15.16
2019-05-05T23:43:40.972Z,15.11
2019-05-05T23:46:11.393Z,15.02
2019-05-05T23:48:41.975Z,15.05
2019-05-05T23:51:13.946Z,15.03
2019-05-05T23:53:44.796Z,14.98
2019-05-05T23:56:15.213Z,14.88
2019-05-05T23:58:45.683Z,14.91
